sensor_id;sensor_type;location;lat;lon;timestamp;temperature;humidity
65985;HTU21D;52748;51.112;5.880;2024-01-15T00:01:56;15.78;69.90
65985;HTU21D;52748;51.112;5.880;2024-01-15T00:04:22;15.78;69.78
65985;HTU21D;52748;51.112;5.880;2024-01-15T00:06:49;15.78;69.65
65985;HTU21D;52748;51.112;5.880;2024-01-15T00:09:15;15.78;69.55
65985;HTU21D;52748;51.112;5.880;2024-01-15T00:11:42;15.77;69.43
65985;HTU21D;52748;51.112;5.880;2024-01-15T00:14:08;15.77;69.34
65985;HTU21D;52748;51.112;5.880;2024-01-15T00:16:34;15.77;69.34
65985;HTU21D;52748;51.112;5.880;2024-01-15T00:19:00;15.76;69.36
65985;HTU21D;52748;51.112;5.880;2024-01-15T00:21:26;15.76;69.36
65985;HTU21D;52748;51.112;5.880;2024-01-15T00:23:53;15.77;69.29
65985;HTU21D;52748;51.112;5.880;2024-01-15T00:26:19;15.76;69.19
65985;HTU21D;52748;51.112;5.880;2024-01-15T00:28:45;15.76;69.08
65985;HTU21D;52748;51.112;5.880;2024-01-15T00:31:10;15.75;69.00
65985;HTU21D;52748;51.112;5.880;2024-01-15T00:33:36;15.74;68.94
65985;HTU21D;52748;51.112;5.880;2024-01-15T00:36:02;15.74;68.93
65985;HTU21D;52748;51.112;5.880;2024-01-15T00:38:28;15.74;68.87
65985;HTU21D;52748;51.112;5.880;2024-01-15T00:40:54;15.74;68.79
65985;HTU21D;52748;51.112;5.880;2024-01-15T00:43:20;15.74;68.78
65985;HTU21D;52748;51.112;5.880;2024-01-15T00:45:46;15.73;68.68
65985;HTU21D;52748;51.112;5.880;2024-01-15T00:48:12;15.73;68.56
65985;HTU21D;52748;51.112;5.880;2024-01-15T00:50:38;15.73;68.52
65985;HTU21D;52748;51.112;5.880;2024-01-15T00:53:04;15.73;68.48
65985;HTU21D;52748;51.112;5.880;2024-01-15T00:55:30;15.73;68.46
65985;HTU21D;52748;51.112;5.880;2024-01-15T00:57:55;15.72;68.45
65985;HTU21D;52748;51.112;5.880;2024-01-15T01:00:21;15.72;68.39
65985;HTU21D;52748;51.112;5.880;2024-01-15T01:02:47;15.73;68.30
65985;HTU21D;52748;51.112;5.880;2024-01-15T01:05:13;15.71;68.23
65985;HTU21D;52748;51.112;5.880;2024-01-15T01:07:39;15.73;68.14
65985;HTU21D;52748;51.112;5.880;2024-01-15T01:10:05;15.71;68.12
65985;HTU21D;52748;51.112;5.880;2024-01-15T01:12:32;15.71;68.04
65985;HTU21D;52748;51.112;5.880;2024-01-15T01:14:58;15.71;68.01
65985;HTU21D;52748;51.112;5.880;2024-01-15T01:17:25;15.71;67.94
65985;HTU21D;52748;51.112;5.880;2024-01-15T01:19:50;15.71;67.88
65985;HTU21D;52748;51.112;5.880;2024-01-15T01:22:16;15.70;67.80
65985;HTU21D;52748;51.112;5.880;2024-01-15T01:24:42;15.70;67.67
65985;HTU21D;52748;51.112;5.880;2024-01-15T01:27:07;15.71;67.56
65985;HTU21D;52748;51.112;5.880;2024-01-15T01:29:33;15.69;67.49
65985;HTU21D;52748;51.112;5.880;2024-01-15T01:31:59;15.70;67.48
65985;HTU21D;52748;51.112;5.880;2024-01-15T01:34:25;15.70;67.45
65985;HTU21D;52748;51.112;5.880;2024-01-15T01:36:51;15.70;67.51
65985;HTU21D;52748;51.112;5.880;2024-01-15T01:39:16;15.69;67.59
65985;HTU21D;52748;51.112;5.880;2024-01-15T01:41:42;15.69;67.65
65985;HTU21D;52748;51.112;5.880;2024-01-15T01:44:08;15.69;67.81
65985;HTU21D;52748;51.112;5.880;2024-01-15T01:46:36;15.69;67.84
65985;HTU21D;52748;51.112;5.880;2024-01-15T01:49:07;15.68;68.00
65985;HTU21D;52748;51.112;5.880;2024-01-15T01:51:34;15.70;68.04
65985;HTU21D;52748;51.112;5.880;2024-01-15T01:54:01;15.69;68.09
65985;HTU21D;52748;51.112;5.880;2024-01-15T01:56:28;15.69;68.42
65985;HTU21D;52748;51.112;5.880;2024-01-15T01:58:54;15.75;68.25
65985;HTU21D;52748;51.112;5.880;2024-01-15T02:01:20;15.84;67.75
65985;HTU21D;52748;51.112;5.880;2024-01-15T02:03:46;15.91;67.36
65985;HTU21D;52748;51.112;5.880;2024-01-15T02:06:12;15.96;66.97
65985;HTU21D;52748;51.112;5.880;2024-01-15T02:08:39;16.01;66.77
65985;HTU21D;52748;51.112;5.880;2024-01-15T02:11:05;16.03;66.53
65985;HTU21D;52748;51.112;5.880;2024-01-15T02:13:31;16.04;66.42
65985;HTU21D;52748;51.112;5.880;2024-01-15T02:15:56;16.05;66.36
65985;HTU21D;52748;51.112;5.880;2024-01-15T02:18:22;16.04;66.37
65985;HTU21D;52748;51.112;5.880;2024-01-15T02:20:48;16.03;66.36
65985;HTU21D;52748;51.112;5.880;2024-01-15T02:23:15;16.02;66.40
65985;HTU21D;52748;51.112;5.880;2024-01-15T02:25:43;16.01;66.33
65985;HTU21D;52748;51.112;5.880;2024-01-15T02:28:12;16.00;66.38
65985;HTU21D;52748;51.112;5.880;2024-01-15T02:30:40;15.99;66.42
65985;HTU21D;52748;51.112;5.880;2024-01-15T02:33:07;15.97;66.48
65985;HTU21D;52748;51.112;5.880;2024-01-15T02:35:34;15.95;66.60
65985;HTU21D;52748;51.112;5.880;2024-01-15T02:38:02;15.93;66.66
65985;HTU21D;52748;51.112;5.880;2024-01-15T02:40:29;15.92;66.73
65985;HTU21D;52748;51.112;5.880;2024-01-15T02:42:55;15.89;66.81
65985;HTU21D;52748;51.112;5.880;2024-01-15T02:45:21;15.87;66.85
65985;HTU21D;52748;51.112;5.880;2024-01-15T02:47:47;15.86;66.93
65985;HTU21D;52748;51.112;5.880;2024-01-15T02:50:13;15.85;67.02
65985;HTU21D;52748;51.112;5.880;2024-01-15T02:52:39;15.84;67.04
65985;HTU21D;52748;51.112;5.880;2024-01-15T02:55:05;15.83;67.11
65985;HTU21D;52748;51.112;5.880;2024-01-15T02:57:31;15.81;67.11
65985;HTU21D;52748;51.112;5.880;2024-01-15T02:59:57;15.80;67.13
65985;HTU21D;52748;51.112;5.880;2024-01-15T03:02:22;15.78;67.14
65985;HTU21D;52748;51.112;5.880;2024-01-15T03:04:48;15.77;67.14
65985;HTU21D;52748;51.112;5.880;2024-01-15T03:07:14;15.76;67.18
65985;HTU21D;52748;51.112;5.880;2024-01-15T03:09:40;15.75;67.27
65985;HTU21D;52748;51.112;5.880;2024-01-15T03:12:06;15.74;67.32
65985;HTU21D;52748;51.112;5.880;2024-01-15T03:14:32;15.73;67.34
65985;HTU21D;52748;51.112;5.880;2024-01-15T03:16:58;15.72;67.34
65985;HTU21D;52748;51.112;5.880;2024-01-15T03:19:23;15.72;67.37
65985;HTU21D;52748;51.112;5.880;2024-01-15T03:21:49;15.70;67.37
65985;HTU21D;52748;51.112;5.880;2024-01-15T03:24:15;15.69;67.33
65985;HTU21D;52748;51.112;5.880;2024-01-15T03:26:41;15.69;67.33
65985;HTU21D;52748;51.112;5.880;2024-01-15T03:29:07;15.68;67.33
65985;HTU21D;52748;51.112;5.880;2024-01-15T03:31:33;15.68;67.34
65985;HTU21D;52748;51.112;5.880;2024-01-15T03:33:59;15.68;67.30
65985;HTU21D;52748;51.112;5.880;2024-01-15T03:36:24;15.67;67.39
65985;HTU21D;52748;51.112;5.880;2024-01-15T03:38:50;15.67;67.39
65985;HTU21D;52748;51.112;5.880;2024-01-15T03:41:16;15.66;67.38
65985;HTU21D;52748;51.112;5.880;2024-01-15T03:43:42;15.66;67.37
65985;HTU21D;52748;51.112;5.880;2024-01-15T03:46:08;15.65;67.34
65985;HTU21D;52748;51.112;5.880;2024-01-15T03:48:33;15.63;67.32
65985;HTU21D;52748;51.112;5.880;2024-01-15T03:51:00;15.63;67.33
65985;HTU21D;52748;51.112;5.880;2024-01-15T03:53:26;15.63;67.36
65985;HTU21D;52748;51.112;5.880;2024-01-15T03:55:52;15.62;67.43
65985;HTU21D;52748;51.112;5.880;2024-01-15T03:58:18;15.61;67.42
65985;HTU21D;52748;51.112;5.880;2024-01-15T04:00:43;15.62;67.41
65985;HTU21D;52748;51.112;5.880;2024-01-15T04:03:10;15.61;67.33
65985;HTU21D;52748;51.112;5.880;2024-01-15T04:05:35;15.61;67.32
65985;HTU21D;52748;51.112;5.880;2024-01-15T04:08:01;15.60;67.36
65985;HTU21D;52748;51.112;5.880;2024-01-15T04:10:27;15.59;67.39
65985;HTU21D;52748;51.112;5.880;2024-01-15T04:12:53;15.58;67.37
65985;HTU21D;52748;51.112;5.880;2024-01-15T04:15:18;15.58;67.33
65985;HTU21D;52748;51.112;5.880;2024-01-15T04:17:44;15.59;67.32
65985;HTU21D;52748;51.112;5.880;2024-01-15T04:20:10;15.58;67.35
65985;HTU21D;52748;51.112;5.880;2024-01-15T04:22:37;15.58;67.35
65985;HTU21D;52748;51.112;5.880;2024-01-15T04:25:03;15.57;67.33
65985;HTU21D;52748;51.112;5.880;2024-01-15T04:27:29;15.58;67.27
65985;HTU21D;52748;51.112;5.880;2024-01-15T04:29:55;15.57;67.25
65985;HTU21D;52748;51.112;5.880;2024-01-15T04:32:21;15.56;67.23
65985;HTU21D;52748;51.112;5.880;2024-01-15T04:34:46;15.57;67.16
65985;HTU21D;52748;51.112;5.880;2024-01-15T04:37:13;15.55;67.10
65985;HTU21D;52748;51.112;5.880;2024-01-15T04:39:39;15.55;67.14
65985;HTU21D;52748;51.112;5.880;2024-01-15T04:42:05;15.55;67.07
65985;HTU21D;52748;51.112;5.880;2024-01-15T04:44:31;15.55;67.04
65985;HTU21D;52748;51.112;5.880;2024-01-15T04:46:57;15.55;67.09
65985;HTU21D;52748;51.112;5.880;2024-01-15T04:49:22;15.55;67.04
65985;HTU21D;52748;51.112;5.880;2024-01-15T04:51:51;15.53;67.08
65985;HTU21D;52748;51.112;5.880;2024-01-15T04:54:17;15.54;67.01
65985;HTU21D;52748;51.112;5.880;2024-01-15T04:56:46;15.53;67.02
65985;HTU21D;52748;51.112;5.880;2024-01-15T04:59:13;15.53;66.99
65985;HTU21D;52748;51.112;5.880;2024-01-15T05:01:40;15.51;66.94
65985;HTU21D;52748;51.112;5.880;2024-01-15T05:04:06;15.53;66.93
65985;HTU21D;52748;51.112;5.880;2024-01-15T05:06:31;15.53;66.88
65985;HTU21D;52748;51.112;5.880;2024-01-15T05:08:57;15.53;66.86
65985;HTU21D;52748;51.112;5.880;2024-01-15T05:11:23;15.51;66.85
65985;HTU21D;52748;51.112;5.880;2024-01-15T05:13:49;15.51;66.89
65985;HTU21D;52748;51.112;5.880;2024-01-15T05:16:14;15.51;66.85
65985;HTU21D;52748;51.112;5.880;2024-01-15T05:18:40;15.49;66.85
65985;HTU21D;52748;51.112;5.880;2024-01-15T05:21:06;15.51;66.91
65985;HTU21D;52748;51.112;5.880;2024-01-15T05:23:32;15.49;66.89
65985;HTU21D;52748;51.112;5.880;2024-01-15T05:25:57;15.51;66.82
65985;HTU21D;52748;51.112;5.880;2024-01-15T05:28:23;15.49;66.83
65985;HTU21D;52748;51.112;5.880;2024-01-15T05:30:49;15.51;66.79
65985;HTU21D;52748;51.112;5.880;2024-01-15T05:33:16;15.49;66.84
65985;HTU21D;52748;51.112;5.880;2024-01-15T05:35:42;15.49;66.81
65985;HTU21D;52748;51.112;5.880;2024-01-15T05:38:08;15.47;66.80
65985;HTU21D;52748;51.112;5.880;2024-01-15T05:40:34;15.48;66.78
65985;HTU21D;52748;51.112;5.880;2024-01-15T05:43:00;15.49;66.71
65985;HTU21D;52748;51.112;5.880;2024-01-15T05:45:27;15.47;66.67
65985;HTU21D;52748;51.112;5.880;2024-01-15T05:47:52;15.47;66.68
65985;HTU21D;52748;51.112;5.880;2024-01-15T05:50:18;15.48;66.69
65985;HTU21D;52748;51.112;5.880;2024-01-15T05:52:44;15.47;66.76
65985;HTU21D;52748;51.112;5.880;2024-01-15T05:55:10;15.47;66.74
65985;HTU21D;52748;51.112;5.880;2024-01-15T05:57:36;15.46;66.65
65985;HTU21D;52748;51.112;5.880;2024-01-15T06:00:04;15.46;66.65
65985;HTU21D;52748;51.112;5.880;2024-01-15T06:02:31;15.47;66.70
65985;HTU21D;52748;51.112;5.880;2024-01-15T06:04:57;15.46;66.74
65985;HTU21D;52748;51.112;5.880;2024-01-15T06:07:23;15.45;66.78
65985;HTU21D;52748;51.112;5.880;2024-01-15T06:09:49;15.46;66.76
65985;HTU21D;52748;51.112;5.880;2024-01-15T06:12:15;15.45;67.22
65985;HTU21D;52748;51.112;5.880;2024-01-15T06:14:41;15.45;67.33
65985;HTU21D;52748;51.112;5.880;2024-01-15T06:17:08;15.44;67.62
65985;HTU21D;52748;51.112;5.880;2024-01-15T06:19:34;15.46;67.77
65985;HTU21D;52748;51.112;5.880;2024-01-15T06:21:59;15.46;68.18
65985;HTU21D;52748;51.112;5.880;2024-01-15T06:24:25;15.47;68.18
65985;HTU21D;52748;51.112;5.880;2024-01-15T06:26:51;15.48;68.10
65985;HTU21D;52748;51.112;5.880;2024-01-15T06:29:17;15.48;68.12
65985;HTU21D;52748;51.112;5.880;2024-01-15T06:31:43;15.47;68.17
65985;HTU21D;52748;51.112;5.880;2024-01-15T06:34:09;15.47;68.13
65985;HTU21D;52748;51.112;5.880;2024-01-15T06:36:34;15.46;68.12
65985;HTU21D;52748;51.112;5.880;2024-01-15T06:39:00;15.47;68.07
65985;HTU21D;52748;51.112;5.880;2024-01-15T06:41:27;15.44;59.25
65985;HTU21D;52748;51.112;5.880;2024-01-15T06:43:53;15.39;56.03
65985;HTU21D;52748;51.112;5.880;2024-01-15T06:46:22;15.36;60.12
65985;HTU21D;52748;51.112;5.880;2024-01-15T06:48:48;15.32;63.37
65985;HTU21D;52748;51.112;5.880;2024-01-15T06:51:16;15.29;65.78
65985;HTU21D;52748;51.112;5.880;2024-01-15T06:53:41;15.28;65.97
65985;HTU21D;52748;51.112;5.880;2024-01-15T06:56:08;15.27;66.59
65985;HTU21D;52748;51.112;5.880;2024-01-15T06:58:33;15.25;65.76
65985;HTU21D;52748;51.112;5.880;2024-01-15T07:01:00;15.25;64.75
65985;HTU21D;52748;51.112;5.880;2024-01-15T07:03:26;15.25;65.08
65985;HTU21D;52748;51.112;5.880;2024-01-15T07:05:52;15.25;66.75
65985;HTU21D;52748;51.112;5.880;2024-01-15T07:08:17;15.24;65.29
65985;HTU21D;52748;51.112;5.880;2024-01-15T07:10:43;15.24;65.74
65985;HTU21D;52748;51.112;5.880;2024-01-15T07:13:09;15.26;66.11
65985;HTU21D;52748;51.112;5.880;2024-01-15T07:15:35;15.26;66.63
65985;HTU21D;52748;51.112;5.880;2024-01-15T07:18:01;15.28;66.98
65985;HTU21D;52748;51.112;5.880;2024-01-15T07:20:26;15.28;67.33
65985;HTU21D;52748;51.112;5.880;2024-01-15T07:22:52;15.29;67.68
65985;HTU21D;52748;51.112;5.880;2024-01-15T07:25:18;15.31;67.80
65985;HTU21D;52748;51.112;5.880;2024-01-15T07:27:44;15.32;67.96
65985;HTU21D;52748;51.112;5.880;2024-01-15T07:30:11;15.33;67.97
65985;HTU21D;52748;51.112;5.880;2024-01-15T07:32:37;15.33;68.03
65985;HTU21D;52748;51.112;5.880;2024-01-15T07:35:04;15.38;68.07
65985;HTU21D;52748;51.112;5.880;2024-01-15T07:37:29;15.38;68.09
65985;HTU21D;52748;51.112;5.880;2024-01-15T07:39:55;15.39;68.13
65985;HTU21D;52748;51.112;5.880;2024-01-15T07:42:21;15.41;68.16
65985;HTU21D;52748;51.112;5.880;2024-01-15T07:44:47;15.41;68.19
65985;HTU21D;52748;51.112;5.880;2024-01-15T07:47:13;15.42;68.21
65985;HTU21D;52748;51.112;5.880;2024-01-15T07:49:39;15.43;68.17
65985;HTU21D;52748;51.112;5.880;2024-01-15T07:52:05;15.44;68.15
65985;HTU21D;52748;51.112;5.880;2024-01-15T07:54:31;15.44;68.11
65985;HTU21D;52748;51.112;5.880;2024-01-15T07:57:00;15.45;68.12
65985;HTU21D;52748;51.112;5.880;2024-01-15T07:59:29;15.45;68.10
65985;HTU21D;52748;51.112;5.880;2024-01-15T08:01:55;15.46;68.23
65985;HTU21D;52748;51.112;5.880;2024-01-15T08:04:20;15.46;68.30
65985;HTU21D;52748;51.112;5.880;2024-01-15T08:06:47;15.46;68.30
65985;HTU21D;52748;51.112;5.880;2024-01-15T08:09:13;15.46;68.35
65985;HTU21D;52748;51.112;5.880;2024-01-15T08:11:40;15.47;68.34
65985;HTU21D;52748;51.112;5.880;2024-01-15T08:14:07;15.47;68.33
65985;HTU21D;52748;51.112;5.880;2024-01-15T08:16:33;15.48;68.42
65985;HTU21D;52748;51.112;5.880;2024-01-15T08:19:00;15.49;68.51
65985;HTU21D;52748;51.112;5.880;2024-01-15T08:21:25;15.51;68.61
65985;HTU21D;52748;51.112;5.880;2024-01-15T08:23:54;15.49;68.60
65985;HTU21D;52748;51.112;5.880;2024-01-15T08:26:19;15.51;68.62
65985;HTU21D;52748;51.112;5.880;2024-01-15T08:28:45;15.52;68.59
65985;HTU21D;52748;51.112;5.880;2024-01-15T08:31:12;15.54;68.49
65985;HTU21D;52748;51.112;5.880;2024-01-15T08:33:38;15.53;68.60
65985;HTU21D;52748;51.112;5.880;2024-01-15T08:36:04;15.52;68.57
65985;HTU21D;52748;51.112;5.880;2024-01-15T08:38:30;15.53;68.64
65985;HTU21D;52748;51.112;5.880;2024-01-15T08:40:55;15.53;68.66
65985;HTU21D;52748;51.112;5.880;2024-01-15T08:43:24;15.53;68.62
65985;HTU21D;52748;51.112;5.880;2024-01-15T08:45:50;15.54;68.67
65985;HTU21D;52748;51.112;5.880;2024-01-15T08:48:16;15.54;68.56
65985;HTU21D;52748;51.112;5.880;2024-01-15T08:50:43;15.53;68.65
65985;HTU21D;52748;51.112;5.880;2024-01-15T08:53:12;15.54;68.68
65985;HTU21D;52748;51.112;5.880;2024-01-15T08:55:38;15.53;68.66
65985;HTU21D;52748;51.112;5.880;2024-01-15T08:58:04;15.54;68.61
65985;HTU21D;52748;51.112;5.880;2024-01-15T09:00:29;15.54;68.70
65985;HTU21D;52748;51.112;5.880;2024-01-15T09:02:56;15.53;68.71
65985;HTU21D;52748;51.112;5.880;2024-01-15T09:05:22;15.55;68.78
65985;HTU21D;52748;51.112;5.880;2024-01-15T09:07:48;15.55;68.78
65985;HTU21D;52748;51.112;5.880;2024-01-15T09:10:14;15.55;68.81
65985;HTU21D;52748;51.112;5.880;2024-01-15T09:12:40;15.55;68.86
65985;HTU21D;52748;51.112;5.880;2024-01-15T09:15:06;15.56;68.87
65985;HTU21D;52748;51.112;5.880;2024-01-15T09:17:32;15.56;68.87
65985;HTU21D;52748;51.112;5.880;2024-01-15T09:19:58;15.57;68.90
65985;HTU21D;52748;51.112;5.880;2024-01-15T09:22:24;15.56;68.91
65985;HTU21D;52748;51.112;5.880;2024-01-15T09:24:49;15.56;68.94
65985;HTU21D;52748;51.112;5.880;2024-01-15T09:27:15;15.56;68.87
65985;HTU21D;52748;51.112;5.880;2024-01-15T09:29:41;15.56;67.46
65985;HTU21D;52748;51.112;5.880;2024-01-15T09:32:08;15.56;67.95
65985;HTU21D;52748;51.112;5.880;2024-01-15T09:34:34;15.56;68.17
65985;HTU21D;52748;51.112;5.880;2024-01-15T09:37:00;15.54;68.25
65985;HTU21D;52748;51.112;5.880;2024-01-15T09:39:27;15.55;68.23
65985;HTU21D;52748;51.112;5.880;2024-01-15T09:41:54;15.53;68.28
65985;HTU21D;52748;51.112;5.880;2024-01-15T09:44:21;15.54;68.30
65985;HTU21D;52748;51.112;5.880;2024-01-15T09:46:47;15.54;68.30
65985;HTU21D;52748;51.112;5.880;2024-01-15T09:49:16;15.54;68.55
65985;HTU21D;52748;51.112;5.880;2024-01-15T09:51:43;15.53;68.68
65985;HTU21D;52748;51.112;5.880;2024-01-15T09:54:09;15.51;68.70
65985;HTU21D;52748;51.112;5.880;2024-01-15T09:56:36;15.53;68.68
65985;HTU21D;52748;51.112;5.880;2024-01-15T09:59:02;15.53;68.74
65985;HTU21D;52748;51.112;5.880;2024-01-15T10:01:31;15.52;68.92
65985;HTU21D;52748;51.112;5.880;2024-01-15T10:03:58;15.52;68.93
65985;HTU21D;52748;51.112;5.880;2024-01-15T10:06:27;15.51;68.98
65985;HTU21D;52748;51.112;5.880;2024-01-15T10:08:57;15.52;68.94
65985;HTU21D;52748;51.112;5.880;2024-01-15T10:11:26;15.53;68.88
65985;HTU21D;52748;51.112;5.880;2024-01-15T10:13:52;15.53;68.80
65985;HTU21D;52748;51.112;5.880;2024-01-15T10:16:19;15.52;68.78
65985;HTU21D;52748;51.112;5.880;2024-01-15T10:18:45;15.52;68.94
65985;HTU21D;52748;51.112;5.880;2024-01-15T10:21:11;15.51;68.94
65985;HTU21D;52748;51.112;5.880;2024-01-15T10:23:37;15.52;68.91
65985;HTU21D;52748;51.112;5.880;2024-01-15T10:26:03;15.51;68.90
65985;HTU21D;52748;51.112;5.880;2024-01-15T10:28:30;15.51;68.97
65985;HTU21D;52748;51.112;5.880;2024-01-15T10:30:58;15.51;68.94
65985;HTU21D;52748;51.112;5.880;2024-01-15T10:33:27;15.51;68.94
65985;HTU21D;52748;51.112;5.880;2024-01-15T10:35:55;15.51;69.02
65985;HTU21D;52748;51.112;5.880;2024-01-15T10:38:22;15.51;69.10
65985;HTU21D;52748;51.112;5.880;2024-01-15T10:40:54;15.51;69.13
65985;HTU21D;52748;51.112;5.880;2024-01-15T10:43:21;15.49;69.26
65985;HTU21D;52748;51.112;5.880;2024-01-15T10:45:50;15.49;69.31
65985;HTU21D;52748;51.112;5.880;2024-01-15T10:48:19;15.49;69.48
65985;HTU21D;52748;51.112;5.880;2024-01-15T10:50:46;15.49;69.58
65985;HTU21D;52748;51.112;5.880;2024-01-15T10:53:16;15.49;69.70
65985;HTU21D;52748;51.112;5.880;2024-01-15T10:55:43;15.49;69.78
65985;HTU21D;52748;51.112;5.880;2024-01-15T10:58:09;15.51;69.90
65985;HTU21D;52748;51.112;5.880;2024-01-15T11:00:36;15.51;70.00
65985;HTU21D;52748;51.112;5.880;2024-01-15T11:03:05;15.51;70.07
65985;HTU21D;52748;51.112;5.880;2024-01-15T11:05:37;15.51;70.03
65985;HTU21D;52748;51.112;5.880;2024-01-15T11:08:07;15.49;70.13
65985;HTU21D;52748;51.112;5.880;2024-01-15T11:10:46;15.48;70.07
65985;HTU21D;52748;51.112;5.880;2024-01-15T11:13:15;15.49;70.10
65985;HTU21D;52748;51.112;5.880;2024-01-15T11:18:22;15.48;69.98
65985;HTU21D;52748;51.112;5.880;2024-01-15T11:24:08;15.48;69.94
65985;HTU21D;52748;51.112;5.880;2024-01-15T11:26:37;15.48;70.01
65985;HTU21D;52748;51.112;5.880;2024-01-15T11:29:29;15.48;70.01
65985;HTU21D;52748;51.112;5.880;2024-01-15T11:34:21;15.48;70.16
65985;HTU21D;52748;51.112;5.880;2024-01-15T11:37:07;15.47;70.16
65985;HTU21D;52748;51.112;5.880;2024-01-15T11:42:03;15.48;70.59
65985;HTU21D;52748;51.112;5.880;2024-01-15T11:44:30;15.49;70.87
65985;HTU21D;52748;51.112;5.880;2024-01-15T11:52:17;15.46;73.81
65985;HTU21D;52748;51.112;5.880;2024-01-15T11:54:59;15.46;73.28
65985;HTU21D;52748;51.112;5.880;2024-01-15T11:57:37;15.46;71.93
65985;HTU21D;52748;51.112;5.880;2024-01-15T12:00:07;15.46;71.19
65985;HTU21D;52748;51.112;5.880;2024-01-15T12:02:43;15.46;71.22
65985;HTU21D;52748;51.112;5.880;2024-01-15T12:05:14;15.46;71.19
65985;HTU21D;52748;51.112;5.880;2024-01-15T12:07:42;15.46;71.18
65985;HTU21D;52748;51.112;5.880;2024-01-15T12:10:13;15.47;71.10
65985;HTU21D;52748;51.112;5.880;2024-01-15T12:12:58;15.46;71.24
65985;HTU21D;52748;51.112;5.880;2024-01-15T12:15:28;15.47;71.64
65985;HTU21D;52748;51.112;5.880;2024-01-15T12:18:00;15.46;71.92
65985;HTU21D;52748;51.112;5.880;2024-01-15T12:20:29;15.46;72.09
65985;HTU21D;52748;51.112;5.880;2024-01-15T12:22:55;15.44;72.07
65985;HTU21D;52748;51.112;5.880;2024-01-15T12:25:23;15.44;72.06
65985;HTU21D;52748;51.112;5.880;2024-01-15T12:27:49;15.45;72.22
65985;HTU21D;52748;51.112;5.880;2024-01-15T12:30:15;15.44;72.19
65985;HTU21D;52748;51.112;5.880;2024-01-15T12:32:42;15.43;72.17
65985;HTU21D;52748;51.112;5.880;2024-01-15T12:35:09;15.43;72.11
65985;HTU21D;52748;51.112;5.880;2024-01-15T12:37:36;15.43;71.97
65985;HTU21D;52748;51.112;5.880;2024-01-15T12:40:03;15.43;71.81
65985;HTU21D;52748;51.112;5.880;2024-01-15T12:42:36;15.43;71.71
65985;HTU21D;52748;51.112;5.880;2024-01-15T12:45:04;15.43;71.71
65985;HTU21D;52748;51.112;5.880;2024-01-15T12:47:31;15.42;71.71
65985;HTU21D;52748;51.112;5.880;2024-01-15T12:49:58;15.42;71.77
65985;HTU21D;52748;51.112;5.880;2024-01-15T12:52:29;15.41;71.87
65985;HTU21D;52748;51.112;5.880;2024-01-15T12:54:55;15.41;72.01
65985;HTU21D;52748;51.112;5.880;2024-01-15T12:57:22;15.42;72.12
65985;HTU21D;52748;51.112;5.880;2024-01-15T12:59:49;15.41;72.15
65985;HTU21D;52748;51.112;5.880;2024-01-15T13:02:16;15.41;72.18
65985;HTU21D;52748;51.112;5.880;2024-01-15T13:04:42;15.39;72.19
65985;HTU21D;52748;51.112;5.880;2024-01-15T13:07:09;15.40;72.19
65985;HTU21D;52748;51.112;5.880;2024-01-15T13:09:35;15.40;72.16
65985;HTU21D;52748;51.112;5.880;2024-01-15T13:12:04;15.40;72.00
65985;HTU21D;52748;51.112;5.880;2024-01-15T13:14:31;15.38;72.06
65985;HTU21D;52748;51.112;5.880;2024-01-15T13:16:58;15.39;72.09
65985;HTU21D;52748;51.112;5.880;2024-01-15T13:19:25;15.38;72.06
65985;HTU21D;52748;51.112;5.880;2024-01-15T13:21:51;15.37;72.02
65985;HTU21D;52748;51.112;5.880;2024-01-15T13:24:17;15.39;72.03
65985;HTU21D;52748;51.112;5.880;2024-01-15T13:26:43;15.38;72.07
65985;HTU21D;52748;51.112;5.880;2024-01-15T13:29:09;15.38;72.07
65985;HTU21D;52748;51.112;5.880;2024-01-15T13:31:35;15.39;72.00
65985;HTU21D;52748;51.112;5.880;2024-01-15T13:34:01;15.38;72.03
65985;HTU21D;52748;51.112;5.880;2024-01-15T13:36:26;15.38;71.96
65985;HTU21D;52748;51.112;5.880;2024-01-15T13:38:53;15.37;71.93
65985;HTU21D;52748;51.112;5.880;2024-01-15T13:41:22;15.39;71.91
65985;HTU21D;52748;51.112;5.880;2024-01-15T13:43:54;15.39;71.87
65985;HTU21D;52748;51.112;5.880;2024-01-15T13:46:23;15.38;72.32
65985;HTU21D;52748;51.112;5.880;2024-01-15T13:48:49;15.38;72.85
65985;HTU21D;52748;51.112;5.880;2024-01-15T13:51:14;15.38;73.25
65985;HTU21D;52748;51.112;5.880;2024-01-15T13:53:40;15.38;73.67
65985;HTU21D;52748;51.112;5.880;2024-01-15T13:56:07;15.38;73.98
65985;HTU21D;52748;51.112;5.880;2024-01-15T13:58:33;15.38;74.27
65985;HTU21D;52748;51.112;5.880;2024-01-15T14:01:00;15.37;74.38
65985;HTU21D;52748;51.112;5.880;2024-01-15T14:03:26;15.37;74.38
65985;HTU21D;52748;51.112;5.880;2024-01-15T14:05:52;15.37;74.51
65985;HTU21D;52748;51.112;5.880;2024-01-15T14:08:18;15.38;74.57
65985;HTU21D;52748;51.112;5.880;2024-01-15T14:10:44;15.38;74.63
65985;HTU21D;52748;51.112;5.880;2024-01-15T14:13:10;15.37;74.49
65985;HTU21D;52748;51.112;5.880;2024-01-15T14:15:36;15.38;74.47
65985;HTU21D;52748;51.112;5.880;2024-01-15T14:18:05;15.37;74.51
65985;HTU21D;52748;51.112;5.880;2024-01-15T14:20:31;15.38;74.57
65985;HTU21D;52748;51.112;5.880;2024-01-15T14:22:57;15.38;74.60
65985;HTU21D;52748;51.112;5.880;2024-01-15T14:25:23;15.38;74.60
65985;HTU21D;52748;51.112;5.880;2024-01-15T14:27:50;15.38;74.51
65985;HTU21D;52748;51.112;5.880;2024-01-15T14:30:16;15.39;74.53
65985;HTU21D;52748;51.112;5.880;2024-01-15T14:32:43;15.39;74.48
65985;HTU21D;52748;51.112;5.880;2024-01-15T14:35:09;15.39;74.44
65985;HTU21D;52748;51.112;5.880;2024-01-15T14:37:39;15.38;74.47
65985;HTU21D;52748;51.112;5.880;2024-01-15T14:40:06;15.38;74.44
65985;HTU21D;52748;51.112;5.880;2024-01-15T14:42:41;15.38;74.42
65985;HTU21D;52748;51.112;5.880;2024-01-15T14:45:07;15.37;74.44
65985;HTU21D;52748;51.112;5.880;2024-01-15T14:47:40;15.38;74.45
65985;HTU21D;52748;51.112;5.880;2024-01-15T14:50:07;15.39;74.36
65985;HTU21D;52748;51.112;5.880;2024-01-15T14:52:34;15.39;74.41
65985;HTU21D;52748;51.112;5.880;2024-01-15T14:55:00;15.38;74.44
65985;HTU21D;52748;51.112;5.880;2024-01-15T14:57:26;15.38;74.44
65985;HTU21D;52748;51.112;5.880;2024-01-15T14:59:52;15.38;74.47
65985;HTU21D;52748;51.112;5.880;2024-01-15T15:02:19;15.38;74.47
65985;HTU21D;52748;51.112;5.880;2024-01-15T15:04:45;15.39;74.66
65985;HTU21D;52748;51.112;5.880;2024-01-15T15:07:11;15.38;74.75
65985;HTU21D;52748;51.112;5.880;2024-01-15T15:09:37;15.38;74.83
65985;HTU21D;52748;51.112;5.880;2024-01-15T15:12:05;15.38;74.80
65985;HTU21D;52748;51.112;5.880;2024-01-15T15:14:32;15.37;74.71
65985;HTU21D;52748;51.112;5.880;2024-01-15T15:17:04;15.38;74.61
65985;HTU21D;52748;51.112;5.880;2024-01-15T15:19:31;15.38;74.57
65985;HTU21D;52748;51.112;5.880;2024-01-15T15:21:58;15.38;72.03
65985;HTU21D;52748;51.112;5.880;2024-01-15T15:24:24;15.39;71.60
65985;HTU21D;52748;51.112;5.880;2024-01-15T15:26:50;15.38;72.48
65985;HTU21D;52748;51.112;5.880;2024-01-15T15:29:15;15.40;71.37